Halibut Cove, Alaska
Current Conditions -  °F | °C
As of 6:53 PM on Saturday 25 Oct 2014 (Local Time) from PAHO Reporting Station
Clear Clear  
Wind Chill: 35°   Ceiling: Unl
Heat Index: 35°   Visibility: 10mi
Dew Point: 23°   Wind: 0mph
Humidity: 61%   Direction: NA
Pressure: 29.83"   Gusts: NA
Location:  59.7153°N, 150.773°W
Report Text: PAHO 260253Z 00000KT 10SM CLR 02/M05 A2983 RMK AO2 SLP102 T00171050 55007
Loading
Personal Weather Stations






























Interactive Weather Map
Tropical Storm Tracking
New forecast layout! Learn more

10-Day Weather Forecast

Advertisements
Track Severe Weather on mobile